createdAt,value
2017-08-18T00:00:43.863Z,19.81
2017-08-18T00:01:49.694Z,19.74
2017-08-18T00:02:55.753Z,19.69
2017-08-18T00:04:04.059Z,19.64
2017-08-18T00:05:13.600Z,19.58
2017-08-18T00:06:19.643Z,19.63
2017-08-18T00:07:25.772Z,19.61
2017-08-18T00:08:31.805Z,19.56
2017-08-18T00:09:37.968Z,19.50
2017-08-18T00:10:43.827Z,19.46
2017-08-18T00:11:49.829Z,19.43
2017-08-18T00:12:55.851Z,19.42
2017-08-18T00:14:01.996Z,19.48
2017-08-18T00:15:08.115Z,19.47
2017-08-18T00:16:14.196Z,19.49
2017-08-18T00:17:20.263Z,19.53
2017-08-18T00:18:26.328Z,19.51
2017-08-18T00:19:32.370Z,19.62
2017-08-18T00:20:38.491Z,19.66
2017-08-18T00:21:44.514Z,19.67
2017-08-18T00:22:50.562Z,19.65
2017-08-18T00:23:56.624Z,19.65
2017-08-18T00:25:08.930Z,19.67
2017-08-18T00:26:15.030Z,19.62
2017-08-18T00:27:21.085Z,19.62
2017-08-18T00:28:26.922Z,19.58
2017-08-18T00:29:32.766Z,19.58
2017-08-18T00:30:38.901Z,19.60
2017-08-18T00:31:44.927Z,19.62
2017-08-18T00:32:50.953Z,19.67
2017-08-18T00:33:56.804Z,19.73
2017-08-18T00:35:02.934Z,19.79
2017-08-18T00:36:08.656Z,19.78
2017-08-18T00:37:14.685Z,19.84
2017-08-18T00:38:20.742Z,19.87
2017-08-18T00:39:26.844Z,19.89
2017-08-18T00:40:32.998Z,20.01
2017-08-18T00:41:39.067Z,20.04
2017-08-18T00:42:44.764Z,20.09
2017-08-18T00:43:50.828Z,20.12
2017-08-18T00:44:56.858Z,20.17
2017-08-18T00:46:02.882Z,20.16
2017-08-18T00:47:08.954Z,20.10
2017-08-18T00:48:14.779Z,20.07
2017-08-18T00:49:21.347Z,20.06
2017-08-18T00:50:27.400Z,20.01
2017-08-18T00:51:33.451Z,19.97
2017-08-18T00:52:39.558Z,19.90
2017-08-18T00:53:45.417Z,19.92
2017-08-18T00:54:51.492Z,19.90
2017-08-18T00:55:57.231Z,19.99
2017-08-18T00:57:02.791Z,20.00
2017-08-18T00:58:08.828Z,20.00
2017-08-18T00:59:14.894Z,20.07
2017-08-18T01:00:20.962Z,20.02
2017-08-18T01:01:26.465Z,19.98
2017-08-18T01:02:32.593Z,19.97
2017-08-18T01:03:38.773Z,19.91
2017-08-18T01:04:44.357Z,20.02
2017-08-18T01:05:50.094Z,20.04
2017-08-18T01:06:55.320Z,19.92
2017-08-18T01:08:00.785Z,19.77
2017-08-18T01:09:06.805Z,19.78
2017-08-18T01:10:12.852Z,19.78
2017-08-18T01:11:18.908Z,19.87
2017-08-18T01:12:24.949Z,19.91
2017-08-18T01:13:31.055Z,19.86
2017-08-18T01:14:37.108Z,19.82
2017-08-18T01:15:43.190Z,19.73
2017-08-18T01:16:48.758Z,19.77
2017-08-18T01:17:54.799Z,19.78
2017-08-18T01:19:00.942Z,19.62
2017-08-18T01:20:06.610Z,19.49
2017-08-18T01:21:12.515Z,19.44
2017-08-18T01:22:18.626Z,19.41
2017-08-18T01:23:24.340Z,19.40
2017-08-18T01:24:30.449Z,19.35
2017-08-18T01:25:36.561Z,19.28
2017-08-18T01:26:42.660Z,19.20
2017-08-18T01:27:50.254Z,19.20
2017-08-18T01:28:59.488Z,19.09
2017-08-18T01:30:05.563Z,19.02
2017-08-18T01:31:11.729Z,18.99
2017-08-18T01:32:17.913Z,18.97
2017-08-18T01:33:23.993Z,18.91
2017-08-18T01:34:30.252Z,18.87
2017-08-18T01:35:36.320Z,18.87
2017-08-18T01:36:42.340Z,18.84
2017-08-18T01:37:48.366Z,18.79
2017-08-18T01:38:54.397Z,18.76
2017-08-18T01:40:00.501Z,18.93
2017-08-18T01:41:06.588Z,18.95
2017-08-18T01:42:12.642Z,18.82
2017-08-18T01:43:18.690Z,18.73
2017-08-18T01:44:24.728Z,18.66
2017-08-18T01:45:30.569Z,18.60
2017-08-18T01:46:36.669Z,18.54
2017-08-18T01:47:42.753Z,18.49
2017-08-18T01:48:50.867Z,18.46
2017-08-18T01:49:56.920Z,18.46
2017-08-18T01:51:03.042Z,18.45
2017-08-18T01:52:09.122Z,18.44
2017-08-18T01:53:15.170Z,18.37
2017-08-18T01:54:21.212Z,18.33
2017-08-18T01:55:27.280Z,18.25
2017-08-18T01:56:33.136Z,18.27
2017-08-18T01:57:39.226Z,18.31
2017-08-18T01:58:45.270Z,18.24
2017-08-18T01:59:51.340Z,18.17
2017-08-18T02:00:57.414Z,18.16
2017-08-18T02:02:03.567Z,18.13
2017-08-18T02:03:09.252Z,18.10
2017-08-18T02:04:15.303Z,18.02
2017-08-18T02:05:21.394Z,18.04
2017-08-18T02:06:27.488Z,18.04
2017-08-18T02:07:33.578Z,18.09
2017-08-18T02:08:39.699Z,18.02
2017-08-18T02:09:45.738Z,17.94
2017-08-18T02:10:51.845Z,17.96
2017-08-18T02:11:57.742Z,17.97
2017-08-18T02:13:03.806Z,17.97
2017-08-18T02:14:09.837Z,18.00
2017-08-18T02:15:15.880Z,18.06
2017-08-18T02:16:21.927Z,18.20
2017-08-18T02:17:27.979Z,18.19
2017-08-18T02:18:34.078Z,18.10
2017-08-18T02:19:40.153Z,18.12
2017-08-18T02:20:46.201Z,18.06
2017-08-18T02:21:52.258Z,17.97
2017-08-18T02:22:58.290Z,17.88
2017-08-18T02:24:04.344Z,17.83
2017-08-18T02:25:10.397Z,17.82
2017-08-18T02:26:16.423Z,17.81
2017-08-18T02:27:22.485Z,17.82
2017-08-18T02:28:28.570Z,17.88
2017-08-18T02:29:34.659Z,18.01
2017-08-18T02:30:42.544Z,18.14
2017-08-18T02:31:48.569Z,18.05
2017-08-18T02:32:54.663Z,17.97
2017-08-18T02:34:00.694Z,17.89
2017-08-18T02:35:06.818Z,17.86
2017-08-18T02:36:12.860Z,17.83
2017-08-18T02:37:18.953Z,17.88
2017-08-18T02:38:24.998Z,18.00
2017-08-18T02:39:31.026Z,18.07
2017-08-18T02:40:37.082Z,18.02
2017-08-18T02:41:43.105Z,17.95
2017-08-18T02:42:49.160Z,17.78
2017-08-18T02:43:55.265Z,17.68
2017-08-18T02:45:01.377Z,17.55
2017-08-18T02:46:07.487Z,17.52
2017-08-18T02:47:13.524Z,17.49
2017-08-18T02:48:19.571Z,17.54
2017-08-18T02:49:25.655Z,17.53
2017-08-18T02:50:31.690Z,17.50
2017-08-18T02:51:41.409Z,17.50
2017-08-18T02:52:47.691Z,17.49
2017-08-18T02:53:53.738Z,17.52
2017-08-18T02:54:59.818Z,17.63
2017-08-18T02:56:05.951Z,17.59
2017-08-18T02:57:12.044Z,17.64
2017-08-18T02:58:18.083Z,17.68
2017-08-18T02:59:24.133Z,17.63
2017-08-18T03:00:30.208Z,17.53
2017-08-18T03:01:36.061Z,17.51
2017-08-18T03:02:41.979Z,17.53
2017-08-18T03:03:48.020Z,17.40
2017-08-18T03:04:54.067Z,17.36
2017-08-18T03:06:00.122Z,17.36
2017-08-18T03:07:06.162Z,17.41
2017-08-18T03:08:12.221Z,17.46
2017-08-18T03:09:18.262Z,17.44
2017-08-18T03:10:23.941Z,17.59
2017-08-18T03:11:29.989Z,17.65
2017-08-18T03:14:18.002Z,17.45
2017-08-18T03:15:24.068Z,17.40
2017-08-18T03:21:37.946Z,17.30
2017-08-18T03:22:43.988Z,17.30
2017-08-18T03:23:50.104Z,17.25
2017-08-18T03:24:56.141Z,17.33
2017-08-18T03:26:02.243Z,17.29
2017-08-18T03:27:08.290Z,17.25
2017-08-18T03:28:14.347Z,17.22
2017-08-18T03:29:20.417Z,17.36
2017-08-18T03:30:26.473Z,17.43
2017-08-18T03:31:32.539Z,17.31
2017-08-18T03:32:38.606Z,17.24
2017-08-18T03:33:49.574Z,17.22
2017-08-18T03:35:00.566Z,17.17
2017-08-18T03:36:06.629Z,17.13
2017-08-18T03:37:12.658Z,17.10
2017-08-18T03:41:26.191Z,16.96
2017-08-18T03:44:14.878Z,16.96
2017-08-18T03:45:21.033Z,16.96
2017-08-18T03:46:27.544Z,17.00
2017-08-18T03:47:33.573Z,17.05
2017-08-18T03:48:39.621Z,17.15
2017-08-18T03:49:45.649Z,17.17
2017-08-18T03:50:51.394Z,17.19
2017-08-18T03:51:57.440Z,17.17
2017-08-18T03:53:03.589Z,17.20
2017-08-18T03:54:09.623Z,17.12
2017-08-18T03:55:16.053Z,17.08
2017-08-18T03:56:22.187Z,17.08
2017-08-18T03:57:28.255Z,17.06
2017-08-18T03:58:34.377Z,17.05
2017-08-18T03:59:40.435Z,17.11
2017-08-18T04:00:46.516Z,17.10
2017-08-18T04:02:14.502Z,17.07
2017-08-18T04:03:20.542Z,17.08
2017-08-18T04:06:03.548Z,17.10
2017-08-18T04:07:09.900Z,17.05
2017-08-18T04:08:16.749Z,17.06
2017-08-18T04:09:22.813Z,17.13
2017-08-18T04:10:28.913Z,17.17
2017-08-18T04:11:35.060Z,17.14
2017-08-18T04:12:41.105Z,17.10
2017-08-18T04:13:47.165Z,17.26
2017-08-18T04:14:53.233Z,17.30
2017-08-18T04:16:04.041Z,17.44
2017-08-18T04:17:10.149Z,17.38
2017-08-18T04:18:16.187Z,17.28
2017-08-18T04:19:22.242Z,17.27
2017-08-18T04:20:28.320Z,17.23
2017-08-18T04:21:34.454Z,17.32
2017-08-18T04:24:22.947Z,17.45
2017-08-18T04:25:29.001Z,17.41
2017-08-18T04:28:16.963Z,17.30
2017-08-18T04:29:23.183Z,17.28
2017-08-18T04:30:29.251Z,17.27
2017-08-18T04:31:35.331Z,17.34
2017-08-18T04:32:41.415Z,17.34
2017-08-18T04:33:47.505Z,17.36
2017-08-18T04:34:53.559Z,17.44
2017-08-18T04:35:58.886Z,17.57
2017-08-18T04:37:04.750Z,17.68
2017-08-18T04:38:11.760Z,17.63
2017-08-18T04:39:18.353Z,17.55
2017-08-18T04:40:24.393Z,17.48
2017-08-18T04:41:30.440Z,17.57
2017-08-18T04:42:36.527Z,17.61
2017-08-18T04:43:42.429Z,17.59
2017-08-18T04:44:49.082Z,17.51
2017-08-18T04:45:55.123Z,17.43
2017-08-18T04:47:00.987Z,17.49
2017-08-18T04:48:07.030Z,17.47
2017-08-18T04:49:13.124Z,17.46
2017-08-18T04:50:24.909Z,17.47
2017-08-18T04:53:13.155Z,17.46
2017-08-18T04:54:19.271Z,17.49
2017-08-18T04:57:14.961Z,17.77
2017-08-18T04:58:26.403Z,17.84
2017-08-18T04:59:35.157Z,17.90
2017-08-18T05:00:40.830Z,17.95
2017-08-18T05:01:46.880Z,17.97
2017-08-18T05:02:52.964Z,17.94
2017-08-18T05:03:59.017Z,17.94
2017-08-18T05:05:05.124Z,17.97
2017-08-18T05:06:11.199Z,18.01
2017-08-18T05:07:17.259Z,18.02
2017-08-18T05:08:23.315Z,18.01
2017-08-18T05:09:29.519Z,18.01
2017-08-18T05:10:35.572Z,18.00
2017-08-18T05:11:41.621Z,17.99
2017-08-18T05:12:47.660Z,18.01
2017-08-18T05:13:53.733Z,17.93
2017-08-18T05:14:59.769Z,17.85
2017-08-18T05:16:05.881Z,17.86
2017-08-18T05:17:11.952Z,17.90
2017-08-18T05:18:18.040Z,18.02
2017-08-18T05:19:24.112Z,18.12
2017-08-18T05:20:30.217Z,18.11
2017-08-18T05:21:37.152Z,18.17
2017-08-18T05:22:43.577Z,18.29
2017-08-18T05:23:49.652Z,18.33
2017-08-18T05:24:55.717Z,18.44
2017-08-18T05:26:01.911Z,18.47
2017-08-18T05:27:07.988Z,18.42
2017-08-18T05:28:14.082Z,18.47
2017-08-18T05:29:20.154Z,18.60
2017-08-18T05:30:26.212Z,18.72
2017-08-18T05:31:32.407Z,18.85
2017-08-18T05:32:38.744Z,18.87
2017-08-18T05:33:44.812Z,18.92
2017-08-18T05:34:50.881Z,19.00
2017-08-18T05:35:56.943Z,18.98
2017-08-18T05:37:03.165Z,18.93
2017-08-18T05:38:09.238Z,18.95
2017-08-18T05:39:15.310Z,19.00
2017-08-18T05:40:22.928Z,19.03
2017-08-18T05:41:32.242Z,19.23
2017-08-18T05:42:38.349Z,19.28
2017-08-18T05:43:44.452Z,19.26
2017-08-18T05:44:50.530Z,19.29
2017-08-18T05:45:56.606Z,19.33
2017-08-18T05:47:02.792Z,19.38
2017-08-18T05:48:08.952Z,19.47
2017-08-18T05:49:15.035Z,19.54
2017-08-18T05:50:21.117Z,19.64
2017-08-18T05:51:27.299Z,19.63
2017-08-18T05:52:33.366Z,19.65
2017-08-18T05:53:39.507Z,19.75
2017-08-18T05:54:45.619Z,19.76
2017-08-18T05:55:51.695Z,19.76
2017-08-18T05:56:57.820Z,19.83
2017-08-18T05:59:46.765Z,19.98
2017-08-18T06:00:59.381Z,20.00
2017-08-18T06:02:28.147Z,20.09
2017-08-18T06:03:34.027Z,20.29
2017-08-18T06:04:40.121Z,20.39
2017-08-18T06:05:46.197Z,20.53
2017-08-18T06:06:52.305Z,20.69
2017-08-18T06:07:58.361Z,20.65
2017-08-18T06:09:03.725Z,20.73
2017-08-18T06:10:09.871Z,20.73
2017-08-18T06:11:15.953Z,20.81
2017-08-18T06:12:22.009Z,20.85
2017-08-18T06:13:29.293Z,21.07
2017-08-18T06:14:35.349Z,21.12
2017-08-18T06:15:41.423Z,21.23
2017-08-18T06:16:47.445Z,21.25
2017-08-18T06:17:53.498Z,21.31
2017-08-18T06:18:59.550Z,21.43
2017-08-18T06:21:48.206Z,21.73
2017-08-18T06:22:54.047Z,21.79
2017-08-18T06:25:36.559Z,21.76
2017-08-18T06:26:42.631Z,21.80
2017-08-18T06:27:48.669Z,21.83
2017-08-18T06:28:54.707Z,21.93
2017-08-18T06:30:00.725Z,22.02
2017-08-18T06:31:06.742Z,21.96
2017-08-18T06:32:12.788Z,21.92
2017-08-18T06:33:18.802Z,21.96
2017-08-18T06:34:24.842Z,22.00
2017-08-18T06:35:30.911Z,21.99
2017-08-18T06:36:36.921Z,21.87
2017-08-18T06:37:42.982Z,21.88
2017-08-18T06:38:48.997Z,21.90
2017-08-18T06:39:55.019Z,21.95
2017-08-18T06:41:04.785Z,21.79
2017-08-18T06:42:17.141Z,21.94
2017-08-18T06:43:24.333Z,22.17
2017-08-18T06:44:30.606Z,22.34
2017-08-18T06:45:36.902Z,22.49
2017-08-18T06:46:43.299Z,22.55
2017-08-18T06:47:49.350Z,22.49
2017-08-18T06:48:55.436Z,22.56
2017-08-18T06:50:01.500Z,22.47
2017-08-18T06:51:07.569Z,22.29
2017-08-18T06:52:13.584Z,22.41
2017-08-18T06:53:19.621Z,22.44
2017-08-18T06:54:25.687Z,22.50
2017-08-18T06:55:31.712Z,22.70
2017-08-18T06:56:37.722Z,22.78
2017-08-18T06:57:43.761Z,22.77
2017-08-18T06:58:49.786Z,22.76
2017-08-18T06:59:55.872Z,22.97
2017-08-18T07:01:01.954Z,23.00
2017-08-18T07:02:07.982Z,23.21
2017-08-18T07:03:13.993Z,23.34
2017-08-18T07:04:20.041Z,23.48
2017-08-18T07:05:26.614Z,23.63
2017-08-18T07:06:32.651Z,23.69
2017-08-18T07:07:38.703Z,23.69
2017-08-18T07:08:44.734Z,23.74
2017-08-18T07:09:50.791Z,23.64
2017-08-18T07:10:56.865Z,23.43
2017-08-18T07:12:02.967Z,23.37
2017-08-18T07:13:08.982Z,23.44
2017-08-18T07:14:15.025Z,23.65
2017-08-18T07:15:21.082Z,23.81
2017-08-18T07:16:27.138Z,23.99
2017-08-18T07:17:33.176Z,24.03
2017-08-18T07:18:39.213Z,24.02
2017-08-18T07:19:45.288Z,24.04
2017-08-18T07:20:51.298Z,24.16
2017-08-18T07:21:57.358Z,24.18
2017-08-18T07:23:03.444Z,24.34
2017-08-18T07:24:09.465Z,24.64
2017-08-18T07:25:15.495Z,24.83
2017-08-18T07:26:21.580Z,25.01
2017-08-18T07:27:27.914Z,25.18
2017-08-18T07:28:33.965Z,25.30
2017-08-18T07:29:40.023Z,25.37
2017-08-18T07:30:46.078Z,25.36
2017-08-18T07:31:52.208Z,25.26
2017-08-18T07:32:58.273Z,25.15
2017-08-18T07:34:04.345Z,25.19
2017-08-18T07:35:10.411Z,25.17
2017-08-18T07:36:16.463Z,25.04
2017-08-18T07:37:22.577Z,24.80
2017-08-18T07:38:28.624Z,24.90
2017-08-18T07:39:34.681Z,24.89
2017-08-18T07:40:40.733Z,24.96
2017-08-18T07:41:46.824Z,24.96
2017-08-18T07:42:52.937Z,25.00
2017-08-18T07:43:59.013Z,25.00
2017-08-18T07:45:07.689Z,25.01
2017-08-18T07:46:13.755Z,25.07
2017-08-18T07:47:19.789Z,25.07
2017-08-18T07:48:25.903Z,25.14
2017-08-18T07:49:31.959Z,25.28
2017-08-18T07:50:38.036Z,25.36
2017-08-18T07:51:44.072Z,25.35
2017-08-18T07:52:50.105Z,25.37
2017-08-18T07:53:56.147Z,25.41
2017-08-18T07:55:02.261Z,25.39
2017-08-18T07:56:08.325Z,25.43
2017-08-18T07:57:14.385Z,25.38
2017-08-18T07:58:20.466Z,25.49
2017-08-18T07:59:26.569Z,25.53
2017-08-18T08:00:32.594Z,25.63
2017-08-18T08:01:38.673Z,25.66
2017-08-18T08:02:44.696Z,25.75
2017-08-18T08:03:50.728Z,25.84
2017-08-18T08:04:56.837Z,25.76
2017-08-18T08:06:05.906Z,25.82
2017-08-18T08:07:11.977Z,25.99
2017-08-18T08:08:18.051Z,26.04
2017-08-18T08:09:23.937Z,26.05
2017-08-18T08:10:30.070Z,26.14
2017-08-18T08:11:36.182Z,26.22
2017-08-18T08:12:42.263Z,26.36
2017-08-18T08:13:48.331Z,26.53
2017-08-18T08:14:54.376Z,26.50
2017-08-18T08:16:00.498Z,26.43
2017-08-18T08:17:06.929Z,26.44
2017-08-18T08:18:12.992Z,26.52
2017-08-18T08:19:19.042Z,26.28
2017-08-18T08:20:25.077Z,26.31
2017-08-18T08:21:31.522Z,26.04
2017-08-18T08:22:37.749Z,25.89
2017-08-18T08:23:43.862Z,25.92
2017-08-18T08:24:49.927Z,25.95
2017-08-18T08:26:00.729Z,25.91
2017-08-18T08:27:06.813Z,25.94
2017-08-18T08:28:12.835Z,25.87
2017-08-18T08:29:18.675Z,25.84
2017-08-18T08:30:24.707Z,25.63
2017-08-18T08:31:30.800Z,25.70
2017-08-18T08:32:36.847Z,25.69
2017-08-18T08:33:42.929Z,25.51
2017-08-18T08:34:48.982Z,25.48
2017-08-18T08:35:55.086Z,25.41
2017-08-18T08:37:09.369Z,25.38
2017-08-18T08:38:24.357Z,25.26
2017-08-18T08:39:30.483Z,25.24
2017-08-18T08:40:36.604Z,25.00
2017-08-18T08:41:42.673Z,25.07
2017-08-18T08:42:48.812Z,25.02
2017-08-18T08:43:54.887Z,25.24
2017-08-18T08:45:00.955Z,25.32
2017-08-18T08:46:06.694Z,25.52
2017-08-18T08:47:12.719Z,25.64
2017-08-18T08:48:18.814Z,25.78
2017-08-18T08:49:24.858Z,25.85
2017-08-18T08:50:30.909Z,25.92
2017-08-18T08:51:36.945Z,25.87
2017-08-18T08:52:43.014Z,25.96
2017-08-18T08:53:49.120Z,26.06
2017-08-18T08:54:55.185Z,26.14
2017-08-18T08:56:01.308Z,26.50
2017-08-18T08:57:07.347Z,26.63
2017-08-18T08:58:13.396Z,26.86
2017-08-18T08:59:19.505Z,27.01
2017-08-18T09:00:25.555Z,26.94
2017-08-18T09:01:31.640Z,26.87
2017-08-18T09:02:37.679Z,26.87
2017-08-18T09:03:43.773Z,26.58
2017-08-18T09:04:49.889Z,26.65
2017-08-18T09:05:55.926Z,26.57
2017-08-18T09:07:03.075Z,26.72
2017-08-18T09:08:12.182Z,26.64
2017-08-18T09:09:18.282Z,26.46
2017-08-18T09:10:24.396Z,26.54
2017-08-18T09:11:30.441Z,26.65
2017-08-18T09:12:36.513Z,26.84
2017-08-18T09:13:42.607Z,26.91
2017-08-18T09:14:48.657Z,27.11
2017-08-18T09:15:55.022Z,27.12
2017-08-18T09:17:01.114Z,27.02
2017-08-18T09:18:07.174Z,26.98
2017-08-18T09:19:13.257Z,26.84
2017-08-18T09:20:19.367Z,26.90
2017-08-18T09:21:25.416Z,26.93
2017-08-18T09:22:31.460Z,27.02
2017-08-18T09:23:37.344Z,26.97
2017-08-18T09:24:43.101Z,26.85
2017-08-18T09:25:49.207Z,27.01
2017-08-18T09:26:55.290Z,27.13
2017-08-18T09:28:07.919Z,27.21
2017-08-18T09:29:13.689Z,27.16
2017-08-18T09:30:19.725Z,27.25
2017-08-18T09:31:25.861Z,27.10
2017-08-18T09:32:31.904Z,27.35
2017-08-18T09:33:37.972Z,27.52
2017-08-18T09:34:43.988Z,27.55
2017-08-18T09:35:50.074Z,27.55
2017-08-18T09:36:56.166Z,27.60
2017-08-18T09:38:02.294Z,27.50
2017-08-18T09:39:08.059Z,27.45
2017-08-18T09:40:13.806Z,27.39
2017-08-18T09:41:19.857Z,27.50
2017-08-18T09:42:25.951Z,27.43
2017-08-18T09:43:32.016Z,27.52
2017-08-18T09:44:38.032Z,27.37
2017-08-18T09:45:44.098Z,27.47
2017-08-18T09:46:50.186Z,27.16
2017-08-18T09:48:07.168Z,27.15
2017-08-18T09:49:24.206Z,27.19
2017-08-18T09:50:41.092Z,27.13
2017-08-18T09:51:57.962Z,27.03
2017-08-18T09:53:14.947Z,26.91
2017-08-18T09:54:32.700Z,26.37
2017-08-18T09:55:51.199Z,26.33
2017-08-18T09:57:08.486Z,26.35
2017-08-18T09:58:38.459Z,26.12
2017-08-18T10:00:19.341Z,26.24
2017-08-18T10:01:26.039Z,26.27
2017-08-18T10:02:33.115Z,26.35
2017-08-18T10:03:42.466Z,26.33
2017-08-18T10:04:50.065Z,26.37
2017-08-18T10:05:56.081Z,26.48
2017-08-18T10:07:03.465Z,26.59
2017-08-18T10:08:09.106Z,26.65
2017-08-18T10:09:21.491Z,26.69
2017-08-18T10:10:28.353Z,26.73
2017-08-18T10:11:34.065Z,26.83
2017-08-18T10:12:40.498Z,26.89
2017-08-18T10:13:47.239Z,26.91
2017-08-18T10:14:54.730Z,26.97
2017-08-18T10:16:02.430Z,27.06
2017-08-18T10:17:08.425Z,27.04
2017-08-18T10:18:15.750Z,27.21
2017-08-18T10:19:23.110Z,27.33
2017-08-18T10:20:29.663Z,27.55
2017-08-18T10:21:35.887Z,27.67
2017-08-18T10:22:43.533Z,27.64
2017-08-18T10:23:51.589Z,27.23
2017-08-18T10:24:59.313Z,27.28
2017-08-18T10:26:05.858Z,27.41
2017-08-18T10:27:13.397Z,27.49
2017-08-18T10:28:20.610Z,27.49
2017-08-18T10:29:26.647Z,27.32
2017-08-18T10:30:33.215Z,27.30
2017-08-18T10:31:41.052Z,27.30
2017-08-18T10:32:48.524Z,27.26
2017-08-18T10:33:56.057Z,27.30
2017-08-18T10:35:03.069Z,27.38
2017-08-18T10:36:11.314Z,27.50
2017-08-18T10:37:18.597Z,27.60
2017-08-18T10:38:25.354Z,27.60
2017-08-18T10:39:32.300Z,27.52
2017-08-18T10:40:39.285Z,27.65
2017-08-18T10:41:45.152Z,27.66
2017-08-18T10:42:52.489Z,27.73
2017-08-18T10:43:59.292Z,27.49
2017-08-18T10:45:04.910Z,27.62
2017-08-18T10:46:10.196Z,27.77
2017-08-18T10:47:16.921Z,27.46
2017-08-18T10:48:23.287Z,27.51
2017-08-18T10:49:29.753Z,27.72
2017-08-18T10:50:36.787Z,27.78
2017-08-18T10:51:43.756Z,27.80
2017-08-18T10:52:49.636Z,28.02
2017-08-18T10:53:54.887Z,27.90
2017-08-18T10:55:00.182Z,27.89
2017-08-18T10:56:05.738Z,27.93
2017-08-18T10:57:11.301Z,27.98
2017-08-18T10:58:16.867Z,28.07
2017-08-18T10:59:22.422Z,28.00
2017-08-18T11:00:27.757Z,28.09
2017-08-18T11:01:33.352Z,28.12
2017-08-18T11:02:38.901Z,27.96
2017-08-18T11:03:44.495Z,27.81
2017-08-18T11:04:50.082Z,27.77
2017-08-18T11:05:55.438Z,27.65
2017-08-18T11:07:00.739Z,27.58
2017-08-18T11:08:06.316Z,27.51
2017-08-18T11:09:11.914Z,27.47
2017-08-18T11:10:17.172Z,27.21
2017-08-18T11:11:22.456Z,27.20
2017-08-18T11:12:27.707Z,27.26
2017-08-18T11:13:33.269Z,27.25
2017-08-18T11:14:38.970Z,27.17
2017-08-18T11:15:44.533Z,27.12
2017-08-18T11:16:50.123Z,27.14
2017-08-18T11:17:55.392Z,27.22
2017-08-18T11:19:00.683Z,27.28
2017-08-18T11:20:06.285Z,27.36
2017-08-18T11:21:11.866Z,27.40
2017-08-18T11:22:17.447Z,27.21
2017-08-18T11:23:23.066Z,27.21
2017-08-18T11:24:28.352Z,27.22
2017-08-18T11:25:33.673Z,27.20
2017-08-18T11:26:38.921Z,27.11
2017-08-18T11:27:44.671Z,27.14
2017-08-18T11:28:50.966Z,27.10
2017-08-18T11:29:56.289Z,27.00
2017-08-18T11:31:01.858Z,27.02
2017-08-18T11:32:07.531Z,26.81
2017-08-18T11:33:13.116Z,26.64
2017-08-18T11:34:18.693Z,26.63
2017-08-18T11:35:24.316Z,26.66
2017-08-18T11:36:29.899Z,26.69
2017-08-18T11:37:35.466Z,26.78
2017-08-18T11:38:41.034Z,26.64
2017-08-18T11:39:46.595Z,26.74
2017-08-18T11:40:52.199Z,26.81
2017-08-18T11:41:57.813Z,27.06
2017-08-18T11:43:03.441Z,27.21
2017-08-18T11:44:09.029Z,27.41
2017-08-18T11:45:14.567Z,27.54
2017-08-18T11:46:20.195Z,27.72
2017-08-18T11:47:25.763Z,27.83
2017-08-18T11:48:31.354Z,27.70
2017-08-18T11:49:36.664Z,27.68
2017-08-18T11:50:42.244Z,27.62
2017-08-18T11:51:47.854Z,27.72
2017-08-18T11:52:53.578Z,27.94
2017-08-18T11:53:59.393Z,28.09
2017-08-18T11:55:04.685Z,27.99
2017-08-18T11:56:10.228Z,27.88
2017-08-18T11:57:15.824Z,27.96
2017-08-18T11:58:21.381Z,28.06
2017-08-18T11:59:26.938Z,27.90
2017-08-18T12:00:32.100Z,27.79
2017-08-18T12:01:37.395Z,27.90
2017-08-18T12:02:42.734Z,27.89
2017-08-18T12:03:48.321Z,28.09
2017-08-18T12:04:53.588Z,28.06
2017-08-18T12:05:58.905Z,27.88
2017-08-18T12:07:04.163Z,27.86
2017-08-18T12:08:09.503Z,27.85
2017-08-18T12:09:14.778Z,27.93
2017-08-18T12:10:20.318Z,27.76
2017-08-18T12:11:25.617Z,28.07
2017-08-18T12:12:31.166Z,28.04
2017-08-18T12:13:36.770Z,28.29
2017-08-18T12:14:42.033Z,28.40
2017-08-18T12:15:47.292Z,28.41
2017-08-18T12:16:52.848Z,28.55
2017-08-18T12:17:58.096Z,28.69
2017-08-18T12:19:03.396Z,28.83
2017-08-18T12:20:08.712Z,28.87
2017-08-18T12:21:13.981Z,29.04
2017-08-18T12:22:19.280Z,29.27
2017-08-18T12:23:24.584Z,29.14
2017-08-18T12:24:29.899Z,29.29
2017-08-18T12:25:35.454Z,29.31
2017-08-18T12:26:40.718Z,29.21
2017-08-18T12:27:46.054Z,29.06
2017-08-18T12:28:51.341Z,29.19
2017-08-18T12:29:56.689Z,29.02
2017-08-18T12:31:02.937Z,29.03
2017-08-18T12:32:08.806Z,28.91
2017-08-18T12:33:14.114Z,28.91
2017-08-18T12:34:21.070Z,29.03
2017-08-18T12:35:29.630Z,29.17
2017-08-18T12:36:37.439Z,29.35
2017-08-18T12:37:44.877Z,29.51
2017-08-18T12:38:53.200Z,29.28
2017-08-18T12:40:01.630Z,29.37
2017-08-18T12:41:10.888Z,29.34
2017-08-18T12:42:18.060Z,29.35
2017-08-18T12:43:24.292Z,29.25
2017-08-18T12:44:29.957Z,28.90
2017-08-18T12:45:37.097Z,28.99
2017-08-18T12:46:43.402Z,29.17
2017-08-18T12:47:48.666Z,29.14
2017-08-18T12:48:55.778Z,28.98
2017-08-18T12:50:03.387Z,28.87
2017-08-18T12:51:11.387Z,28.96
2017-08-18T12:52:20.334Z,28.78
2017-08-18T12:53:28.127Z,28.70
2017-08-18T12:54:36.311Z,28.72
2017-08-18T12:55:47.834Z,28.74
2017-08-18T12:56:55.932Z,28.57
2017-08-18T12:58:05.388Z,28.48
2017-08-18T12:59:12.157Z,28.41
2017-08-18T13:00:21.949Z,28.21
2017-08-18T13:01:29.861Z,28.20
2017-08-18T13:02:37.205Z,28.06
2017-08-18T13:03:44.290Z,27.96
2017-08-18T13:04:53.091Z,28.03
2017-08-18T13:06:00.852Z,27.83
2017-08-18T13:07:09.454Z,27.90
2017-08-18T13:08:16.692Z,27.96
2017-08-18T13:09:22.151Z,28.00
2017-08-18T13:10:27.455Z,27.97
2017-08-18T13:11:32.773Z,28.02
2017-08-18T13:12:38.054Z,27.98
2017-08-18T13:13:43.623Z,27.99
2017-08-18T13:14:48.894Z,27.77
2017-08-18T13:15:54.166Z,27.68
2017-08-18T13:16:59.463Z,27.75
2017-08-18T13:18:06.311Z,27.72
2017-08-18T13:19:15.624Z,27.82
2017-08-18T13:20:23.522Z,27.79
2017-08-18T13:21:29.700Z,27.83
2017-08-18T13:22:36.885Z,27.63
2017-08-18T13:23:43.210Z,27.68
2017-08-18T13:24:50.841Z,27.74
2017-08-18T13:25:58.445Z,27.87
2017-08-18T13:27:04.536Z,27.98
2017-08-18T13:28:11.615Z,28.05
2017-08-18T13:29:19.232Z,28.16
2017-08-18T13:30:27.310Z,28.24
2017-08-18T13:31:33.621Z,28.30
2017-08-18T13:32:39.491Z,28.21
2017-08-18T13:33:47.562Z,27.83
2017-08-18T13:34:55.367Z,27.88
2017-08-18T13:36:02.690Z,28.02
2017-08-18T13:37:10.133Z,28.49
2017-08-18T13:38:18.805Z,28.92
2017-08-18T13:39:26.484Z,29.38
2017-08-18T13:40:32.297Z,29.79
2017-08-18T13:41:37.582Z,29.60
2017-08-18T13:42:42.839Z,29.82
2017-08-18T13:43:48.125Z,30.06
2017-08-18T13:44:53.414Z,29.94
2017-08-18T13:45:58.665Z,30.17
2017-08-18T13:47:03.996Z,30.42
2017-08-18T13:48:09.281Z,30.50
2017-08-18T13:49:14.568Z,30.54
2017-08-18T13:50:19.861Z,30.43
2017-08-18T13:51:25.126Z,30.10
2017-08-18T13:52:30.480Z,29.91
2017-08-18T13:53:35.803Z,30.12
2017-08-18T13:54:41.072Z,30.20
2017-08-18T13:55:46.371Z,30.23
2017-08-18T13:56:51.642Z,30.27
2017-08-18T13:57:57.061Z,30.25
2017-08-18T13:59:02.401Z,30.55
2017-08-18T14:00:07.651Z,30.19
2017-08-18T14:01:12.983Z,30.09
2017-08-18T14:02:18.260Z,29.85
2017-08-18T14:03:23.583Z,29.02
2017-08-18T14:04:28.854Z,28.98
2017-08-18T14:05:34.151Z,28.63
2017-08-18T14:06:39.506Z,28.68
2017-08-18T14:07:44.807Z,28.74
2017-08-18T14:08:50.156Z,28.70
2017-08-18T14:09:55.456Z,28.54
2017-08-18T14:11:00.727Z,28.50
2017-08-18T14:12:05.989Z,28.99
2017-08-18T14:13:11.278Z,29.46
2017-08-18T14:14:16.437Z,29.74
2017-08-18T14:15:21.712Z,29.93
2017-08-18T14:16:26.993Z,29.81
2017-08-18T14:17:32.270Z,29.75
2017-08-18T14:18:37.572Z,29.50
2017-08-18T14:19:42.884Z,28.96
2017-08-18T14:20:48.157Z,28.84
2017-08-18T14:21:53.237Z,28.60
2017-08-18T14:22:58.519Z,28.45
2017-08-18T14:24:03.785Z,28.36
2017-08-18T14:25:15.013Z,28.30
2017-08-18T14:26:26.042Z,28.36
2017-08-18T14:27:46.487Z,28.47
2017-08-18T14:28:52.237Z,28.56
2017-08-18T14:29:57.997Z,28.58
2017-08-18T14:31:03.824Z,28.52
2017-08-18T14:32:09.896Z,28.47
2017-08-18T14:33:15.692Z,28.24
2017-08-18T14:34:21.444Z,28.00
2017-08-18T14:35:27.222Z,28.13
2017-08-18T14:36:33.524Z,27.97
2017-08-18T14:37:39.851Z,28.16
2017-08-18T14:38:46.348Z,28.47
2017-08-18T14:39:53.153Z,28.23
2017-08-18T14:40:59.173Z,28.56
2017-08-18T14:42:04.969Z,28.88